createdAt,value
2023-04-08T00:01:32.984Z,22.18
2023-04-08T00:04:36.416Z,22.24
2023-04-08T00:07:39.649Z,22.82
2023-04-08T00:10:42.766Z,23.40
2023-04-08T00:13:46.640Z,23.23
2023-04-08T00:16:49.856Z,23.68
2023-04-08T00:19:53.564Z,24.06
2023-04-08T00:22:56.723Z,24.48
2023-04-08T00:25:59.921Z,24.57
2023-04-08T00:29:03.302Z,24.05
2023-04-08T00:32:09.521Z,23.70
2023-04-08T00:35:13.647Z,22.47
2023-04-08T00:38:16.842Z,21.22
2023-04-08T00:41:20.343Z,19.31
2023-04-08T00:44:23.506Z,17.25
2023-04-08T00:47:26.986Z,15.48
2023-04-08T00:50:30.252Z,14.09
2023-04-08T00:53:33.493Z,13.01
2023-04-08T00:56:37.468Z,12.29
2023-04-08T00:59:41.121Z,11.60
2023-04-08T01:02:49.137Z,11.18
2023-04-08T01:06:11.809Z,10.90
2023-04-08T01:09:19.949Z,10.45
2023-04-08T01:12:31.725Z,10.10
2023-04-08T01:15:38.419Z,9.85
2023-04-08T01:18:44.536Z,9.74
2023-04-08T01:21:48.461Z,9.57
2023-04-08T01:24:56.661Z,9.47
2023-04-08T01:28:08.139Z,9.37
2023-04-08T01:31:11.749Z,9.33
2023-04-08T01:34:16.892Z,9.36
2023-04-08T01:37:21.337Z,9.37
2023-04-08T01:40:24.912Z,9.42
2023-04-08T01:43:28.716Z,9.54
2023-04-08T01:46:34.356Z,9.70
2023-04-08T01:49:39.808Z,9.79
2023-04-08T01:52:45.943Z,9.88
2023-04-08T01:55:56.550Z,9.97
2023-04-08T01:59:03.003Z,10.04
2023-04-08T02:02:09.937Z,10.07
2023-04-08T02:05:13.261Z,10.11
2023-04-08T02:08:16.509Z,10.25
2023-04-08T02:11:19.754Z,10.36
2023-04-08T02:14:23.687Z,10.44
2023-04-08T02:17:48.320Z,10.62
2023-04-08T02:21:14.373Z,10.75
2023-04-08T02:24:19.210Z,10.89
2023-04-08T02:27:25.633Z,11.03
2023-04-08T02:30:30.647Z,11.20
2023-04-08T02:33:37.765Z,11.36
2023-04-08T02:36:43.235Z,11.45
2023-04-08T02:39:46.410Z,11.55
2023-04-08T02:42:50.126Z,11.68
2023-04-08T02:45:53.834Z,11.81
2023-04-08T02:48:56.986Z,11.86
2023-04-08T02:52:00.261Z,11.95
2023-04-08T02:55:03.830Z,12.03
2023-04-08T02:58:07.107Z,12.10
2023-04-08T03:01:10.351Z,12.22
2023-04-08T03:04:13.690Z,12.25
2023-04-08T03:07:16.959Z,12.33
2023-04-08T03:10:20.086Z,12.42
2023-04-08T03:13:23.316Z,12.54
2023-04-08T03:16:26.814Z,12.72
2023-04-08T03:19:30.094Z,12.84
2023-04-08T03:22:34.135Z,12.91
2023-04-08T03:25:37.375Z,13.00
2023-04-08T03:28:40.868Z,13.11
2023-04-08T03:31:44.385Z,13.20
2023-04-08T03:34:47.661Z,13.26
2023-04-08T03:37:51.069Z,13.43
2023-04-08T03:40:54.235Z,13.56
2023-04-08T03:43:57.561Z,13.69
2023-04-08T03:47:00.892Z,13.84
2023-04-08T03:50:04.152Z,13.98
2023-04-08T03:53:07.494Z,14.12
2023-04-08T03:56:11.060Z,14.21
2023-04-08T03:59:14.267Z,14.29
2023-04-08T04:02:17.468Z,14.38
2023-04-08T04:05:20.747Z,14.59
2023-04-08T04:08:24.105Z,14.70
2023-04-08T04:11:27.901Z,14.79
2023-04-08T04:14:31.233Z,14.87
2023-04-08T04:17:34.426Z,14.99
2023-04-08T04:20:41.302Z,15.07
2023-04-08T04:23:44.454Z,15.14
2023-04-08T04:26:47.616Z,15.23
2023-04-08T04:29:50.870Z,15.31
2023-04-08T04:32:54.093Z,15.40
2023-04-08T04:35:57.475Z,15.47
2023-04-08T04:39:01.051Z,15.56
2023-04-08T04:42:04.410Z,15.65
2023-04-08T04:45:08.224Z,15.77
2023-04-08T04:48:11.762Z,15.87
2023-04-08T04:51:15.279Z,15.95
2023-04-08T04:54:18.710Z,16.07
2023-04-08T04:57:22.664Z,16.24
2023-04-08T05:00:26.205Z,16.30
2023-04-08T05:03:29.411Z,16.37
2023-04-08T05:06:32.622Z,16.44
2023-04-08T05:09:35.932Z,16.42
2023-04-08T05:12:39.436Z,16.49
2023-04-08T05:15:42.770Z,16.48
2023-04-08T05:18:46.649Z,16.53
2023-04-08T05:21:49.796Z,16.62
2023-04-08T05:24:52.906Z,16.72
2023-04-08T05:27:56.739Z,16.76
2023-04-08T05:30:59.928Z,16.73
2023-04-08T05:34:05.745Z,16.64
2023-04-08T05:37:12.049Z,16.73
2023-04-08T05:40:15.756Z,16.77
2023-04-08T05:43:19.313Z,16.76
2023-04-08T05:46:22.655Z,16.75
2023-04-08T05:49:27.101Z,16.76
2023-04-08T05:52:30.286Z,16.82
2023-04-08T05:55:33.656Z,16.93
2023-04-08T05:58:37.202Z,16.99
2023-04-08T06:01:40.641Z,17.01
2023-04-08T06:04:44.092Z,17.02
2023-04-08T06:07:47.769Z,17.01
2023-04-08T06:10:51.933Z,17.01
2023-04-08T06:13:55.414Z,16.99
2023-04-08T06:16:58.720Z,16.83
2023-04-08T06:20:03.039Z,16.82
2023-04-08T06:23:06.493Z,16.89
2023-04-08T06:26:09.820Z,16.93
2023-04-08T06:29:12.970Z,16.98
2023-04-08T06:32:16.511Z,17.02
2023-04-08T06:35:19.790Z,17.13
2023-04-08T06:38:22.957Z,17.22
2023-04-08T06:41:26.294Z,17.25
2023-04-08T06:44:37.226Z,17.39
2023-04-08T06:47:40.502Z,17.46
2023-04-08T06:50:43.747Z,17.42
2023-04-08T06:53:47.376Z,17.45
2023-04-08T06:56:50.509Z,17.47
2023-04-08T06:59:54.213Z,17.49
2023-04-08T07:02:57.525Z,17.35
2023-04-08T07:06:00.717Z,17.33
2023-04-08T07:09:03.867Z,17.42
2023-04-08T07:12:07.114Z,17.62
2023-04-08T07:15:10.922Z,17.73
2023-04-08T07:18:14.278Z,17.72
2023-04-08T07:21:18.717Z,17.69
2023-04-08T07:24:21.836Z,17.66
2023-04-08T07:27:24.967Z,17.52
2023-04-08T07:30:28.503Z,17.45
2023-04-08T07:33:31.896Z,17.39
2023-04-08T07:36:35.272Z,17.43
2023-04-08T07:39:38.408Z,17.49
2023-04-08T07:42:41.573Z,17.36
2023-04-08T07:45:47.246Z,17.25
2023-04-08T07:48:50.999Z,17.19
2023-04-08T07:51:54.361Z,17.14
2023-04-08T07:54:57.574Z,17.08
2023-04-08T07:58:00.766Z,17.08
2023-04-08T08:01:04.272Z,16.94
2023-04-08T08:04:07.570Z,16.83
2023-04-08T08:07:11.117Z,16.79
2023-04-08T08:10:14.306Z,16.84
2023-04-08T08:13:21.828Z,16.89
2023-04-08T08:16:27.977Z,16.91
2023-04-08T08:19:31.373Z,16.76
2023-04-08T08:22:36.658Z,16.69
2023-04-08T08:25:44.982Z,16.61
2023-04-08T08:28:48.198Z,16.60
2023-04-08T08:31:51.331Z,16.58
2023-04-08T08:34:54.447Z,16.57
2023-04-08T08:37:57.946Z,16.58
2023-04-08T08:41:02.440Z,16.58
2023-04-08T08:44:09.481Z,16.68
2023-04-08T08:47:12.692Z,16.58
2023-04-08T08:50:16.346Z,16.53
2023-04-08T08:53:21.254Z,16.52
2023-04-08T08:56:24.436Z,16.47
2023-04-08T08:59:27.636Z,16.48
2023-04-08T09:02:32.844Z,16.37
2023-04-08T09:05:53.889Z,16.22
2023-04-08T09:08:56.978Z,15.97
2023-04-08T09:12:06.857Z,15.89
2023-04-08T09:15:11.112Z,15.68
2023-04-08T09:18:23.928Z,15.62
2023-04-08T09:21:28.036Z,15.48
2023-04-08T09:24:33.112Z,15.44
2023-04-08T09:27:36.976Z,15.47
2023-04-08T09:30:40.207Z,15.50
2023-04-08T09:33:43.343Z,15.56
2023-04-08T09:36:46.845Z,15.67
2023-04-08T09:39:50.406Z,15.74
2023-04-08T09:42:57.020Z,15.83
2023-04-08T09:46:05.028Z,15.83
2023-04-08T09:49:27.953Z,15.76
2023-04-08T09:52:46.010Z,15.64
2023-04-08T09:55:57.893Z,15.56
2023-04-08T09:59:10.509Z,15.39
2023-04-08T10:02:20.787Z,15.28
2023-04-08T10:05:26.380Z,15.08
2023-04-08T10:08:31.757Z,14.93
2023-04-08T10:11:36.840Z,14.77
2023-04-08T10:14:40.454Z,14.62
2023-04-08T10:17:43.600Z,14.49
2023-04-08T10:20:48.099Z,14.31
2023-04-08T10:23:57.002Z,14.18
2023-04-08T10:27:00.298Z,14.00
2023-04-08T10:30:03.731Z,13.89
2023-04-08T10:33:40.800Z,13.81
2023-04-08T10:36:44.929Z,13.64
2023-04-08T10:39:53.707Z,13.53
2023-04-08T10:42:57.688Z,13.39
2023-04-08T10:46:01.101Z,13.29
2023-04-08T10:49:04.414Z,13.14
2023-04-08T10:52:10.536Z,13.04
2023-04-08T10:55:13.719Z,12.92
2023-04-08T10:58:18.067Z,12.77
2023-04-08T11:01:22.136Z,12.59
2023-04-08T11:04:26.479Z,12.47
2023-04-08T11:07:29.726Z,12.36
2023-04-08T11:10:39.444Z,12.26
2023-04-08T11:13:52.080Z,12.16
2023-04-08T11:16:56.754Z,12.08
2023-04-08T11:20:03.282Z,12.13
2023-04-08T11:23:12.467Z,12.08
2023-04-08T11:26:16.519Z,11.94
2023-04-08T11:29:20.231Z,11.78
2023-04-08T11:32:24.341Z,11.67
2023-04-08T11:35:31.772Z,11.55
2023-04-08T11:38:39.661Z,11.35
2023-04-08T11:41:42.817Z,11.26
2023-04-08T11:44:46.082Z,11.20
2023-04-08T11:47:50.009Z,11.07
2023-04-08T11:51:13.344Z,11.02
2023-04-08T11:54:28.331Z,10.91
2023-04-08T11:57:32.388Z,10.79
2023-04-08T12:00:35.693Z,10.71
2023-04-08T12:03:39.081Z,10.53
2023-04-08T12:06:44.257Z,10.32
2023-04-08T12:09:47.151Z,10.26
2023-04-08T12:12:50.289Z,10.08
2023-04-08T12:15:53.735Z,9.96
2023-04-08T12:18:56.868Z,9.84
2023-04-08T12:22:00.011Z,9.86
2023-04-08T12:25:04.596Z,9.73
2023-04-08T12:28:07.879Z,9.66
2023-04-08T12:31:11.072Z,9.56
2023-04-08T12:34:14.213Z,9.39
2023-04-08T12:37:17.541Z,9.25
2023-04-08T12:40:21.340Z,9.11
2023-04-08T12:43:25.143Z,9.00
2023-04-08T12:46:29.145Z,9.02
2023-04-08T12:49:39.561Z,8.93
2023-04-08T12:52:51.870Z,8.93
2023-04-08T12:55:57.964Z,8.82
2023-04-08T12:59:02.052Z,8.67
2023-04-08T13:02:05.381Z,8.55
2023-04-08T13:05:09.080Z,8.47
2023-04-08T13:08:12.967Z,8.35
2023-04-08T13:11:16.262Z,8.20
2023-04-08T13:14:22.620Z,8.07
2023-04-08T13:17:28.585Z,7.94
2023-04-08T13:20:31.914Z,7.83
2023-04-08T13:23:35.541Z,7.78
2023-04-08T13:26:39.020Z,7.75
2023-04-08T13:29:42.309Z,7.71
2023-04-08T13:32:45.580Z,7.71
2023-04-08T13:35:49.325Z,7.70
2023-04-08T13:38:55.534Z,7.63
2023-04-08T13:41:59.228Z,7.59
2023-04-08T13:45:02.745Z,7.56
2023-04-08T13:48:06.290Z,7.58
2023-04-08T13:51:09.831Z,7.58
2023-04-08T13:54:13.024Z,7.55
2023-04-08T13:57:16.424Z,7.47
2023-04-08T14:00:19.743Z,7.40
2023-04-08T14:03:23.057Z,7.33
2023-04-08T14:06:27.485Z,7.27
2023-04-08T14:09:31.396Z,7.20
2023-04-08T14:12:37.872Z,7.20
2023-04-08T14:15:41.339Z,7.17
2023-04-08T14:18:45.117Z,7.13
2023-04-08T14:21:48.541Z,7.08
2023-04-08T14:24:51.983Z,7.05
2023-04-08T14:27:58.627Z,6.98
2023-04-08T14:31:04.643Z,6.90
2023-04-08T14:34:08.267Z,6.86
2023-04-08T14:37:12.861Z,6.76
2023-04-08T14:41:05.465Z,6.67
2023-04-08T14:44:41.946Z,6.62
2023-04-08T14:47:56.907Z,6.59
2023-04-08T14:51:19.315Z,6.56
2023-04-08T14:54:52.008Z,6.43
2023-04-08T14:58:14.706Z,6.31
2023-04-08T15:01:51.080Z,6.31
2023-04-08T15:05:04.040Z,6.23
2023-04-08T15:08:23.532Z,6.09
2023-04-08T15:11:34.312Z,6.00
2023-04-08T15:14:43.739Z,5.96
2023-04-08T15:18:01.814Z,5.88
2023-04-08T15:21:15.122Z,5.83
2023-04-08T15:24:23.660Z,5.74
2023-04-08T15:27:49.804Z,5.63
2023-04-08T15:30:59.470Z,5.57
2023-04-08T15:34:28.605Z,5.55
2023-04-08T15:37:48.255Z,5.42
2023-04-08T15:40:59.415Z,5.35
2023-04-08T15:44:09.783Z,5.27
2023-04-08T15:47:23.334Z,5.20
2023-04-08T15:50:37.250Z,5.11
2023-04-08T15:53:59.727Z,5.05
2023-04-08T15:57:30.048Z,4.98
2023-04-08T16:00:37.230Z,4.88
2023-04-08T16:03:42.208Z,4.78
2023-04-08T16:07:05.526Z,4.72
2023-04-08T16:10:25.547Z,4.61
2023-04-08T16:17:05.953Z,4.45
2023-04-08T16:20:32.524Z,4.35
2023-04-08T16:23:43.265Z,4.28
2023-04-08T16:26:47.734Z,4.20
2023-04-08T16:30:21.738Z,4.14
2023-04-08T16:34:04.123Z,4.04
2023-04-08T16:37:14.711Z,3.97
2023-04-08T16:40:41.187Z,3.85
2023-04-08T16:51:14.595Z,3.58
2023-04-08T16:54:20.589Z,3.43
2023-04-08T16:57:46.418Z,3.30
2023-04-08T17:01:14.384Z,3.22
2023-04-08T17:04:24.808Z,3.13
2023-04-08T17:07:32.971Z,2.99
2023-04-08T17:10:41.702Z,2.94
2023-04-08T17:13:49.526Z,2.90
2023-04-08T17:16:59.664Z,2.84
2023-04-08T17:20:06.881Z,2.73
2023-04-08T17:23:25.110Z,2.65
2023-04-08T17:27:00.709Z,2.61
2023-04-08T17:30:11.569Z,2.67
2023-04-08T17:33:29.460Z,2.71
2023-04-08T17:36:39.529Z,2.68
2023-04-08T17:39:50.807Z,2.68
2023-04-08T17:43:00.168Z,2.66
2023-04-08T17:46:12.653Z,2.65
2023-04-08T17:49:29.750Z,2.66
2023-04-08T17:56:13.232Z,2.62
2023-04-08T17:59:52.795Z,2.63
2023-04-08T18:03:13.567Z,2.63
2023-04-08T18:10:14.737Z,2.65
2023-04-08T18:13:26.348Z,2.63
2023-04-08T18:16:59.879Z,2.59
2023-04-08T18:20:20.833Z,2.56
2023-04-08T18:23:28.714Z,2.51
2023-04-08T18:26:54.296Z,2.47
2023-04-08T18:30:15.780Z,2.45
2023-04-08T18:33:30.193Z,2.40
2023-04-08T18:36:42.249Z,2.33
2023-04-08T18:43:44.916Z,2.21
2023-04-08T18:46:59.134Z,2.14
2023-04-08T18:50:32.758Z,2.04
2023-04-08T18:54:18.311Z,1.74
2023-04-08T18:57:47.691Z,1.29
2023-04-08T19:05:23.008Z,1.26
2023-04-08T19:08:48.405Z,1.42
2023-04-08T19:12:03.069Z,1.55
2023-04-08T19:15:13.359Z,1.68
2023-04-08T19:18:19.034Z,1.79
2023-04-08T19:21:32.658Z,1.82
2023-04-08T19:24:41.849Z,1.80
2023-04-08T19:28:01.384Z,1.76
2023-04-08T19:31:31.107Z,1.73
2023-04-08T19:38:08.295Z,1.75
2023-04-08T19:41:33.329Z,1.83
2023-04-08T19:44:44.585Z,1.85
2023-04-08T19:47:52.734Z,1.80
2023-04-08T19:51:03.969Z,1.77
2023-04-08T19:54:20.548Z,1.78
2023-04-08T19:57:37.211Z,1.77
2023-04-08T20:00:54.112Z,1.82
2023-04-08T20:04:10.311Z,1.70
2023-04-08T20:10:47.018Z,1.52
2023-04-08T20:14:01.701Z,1.47
2023-04-08T20:17:09.168Z,1.43
2023-04-08T20:20:18.363Z,1.40
2023-04-08T20:23:24.044Z,1.39
2023-04-08T20:26:36.327Z,1.36
2023-04-08T20:29:48.825Z,1.33
2023-04-08T20:32:58.153Z,1.29
2023-04-08T20:36:17.792Z,1.23
2023-04-08T20:39:30.946Z,1.15
2023-04-08T20:42:50.488Z,1.12
2023-04-08T20:45:58.893Z,1.04
2023-04-08T20:49:11.933Z,0.98
2023-04-08T20:52:16.333Z,0.87
2023-04-08T20:55:28.853Z,0.72
2023-04-08T20:58:38.267Z,0.61
2023-04-08T21:01:47.097Z,0.37
2023-04-08T21:04:56.411Z,0.23
2023-04-08T21:08:18.151Z,0.16
2023-04-08T21:11:32.595Z,0.08
2023-04-08T21:14:43.391Z,-0.08
2023-04-08T21:17:56.183Z,-0.15
2023-04-08T21:21:10.149Z,-0.23
2023-04-08T21:24:15.658Z,-0.24
2023-04-08T21:27:30.558Z,-0.27
2023-04-08T21:30:36.216Z,-0.32
2023-04-08T21:34:03.887Z,-0.31
2023-04-08T21:37:11.497Z,-0.42
2023-04-08T21:40:20.225Z,-0.40
2023-04-08T21:43:25.965Z,-0.46
2023-04-08T21:46:32.648Z,-0.45
2023-04-08T21:49:42.856Z,-0.42
2023-04-08T21:53:02.393Z,-0.31
2023-04-08T21:56:10.279Z,-0.20
2023-04-08T21:59:33.124Z,-0.16
2023-04-08T22:03:04.338Z,-0.12
2023-04-08T22:06:29.182Z,-0.02
2023-04-08T22:09:37.235Z,-0.01
2023-04-08T22:12:45.836Z,0.11
2023-04-08T22:15:54.537Z,0.23
2023-04-08T22:19:08.793Z,0.42
2023-04-08T22:22:49.022Z,0.60
2023-04-08T22:26:04.819Z,0.77
2023-04-08T22:29:52.079Z,0.92
2023-04-08T22:33:12.283Z,1.17
2023-04-08T22:36:32.258Z,1.28
2023-04-08T22:40:14.685Z,1.46
2023-04-08T22:43:35.109Z,1.46
2023-04-08T22:47:40.610Z,2.13
2023-04-08T22:51:09.560Z,3.64
2023-04-08T22:54:36.518Z,4.77
2023-04-08T22:58:20.387Z,5.97
2023-04-08T23:01:48.581Z,6.72
2023-04-08T23:05:19.921Z,7.51
2023-04-08T23:08:54.222Z,7.87
2023-04-08T23:12:03.812Z,8.24
2023-04-08T23:15:28.225Z,8.83
2023-04-08T23:18:34.787Z,9.56
2023-04-08T23:25:29.267Z,10.98
2023-04-08T23:28:47.265Z,11.38
2023-04-08T23:32:23.779Z,11.33
2023-04-08T23:35:47.925Z,11.11
2023-04-08T23:39:12.706Z,10.89
2023-04-08T23:42:16.249Z,10.76
2023-04-08T23:45:19.589Z,10.91
2023-04-08T23:48:22.770Z,11.02
2023-04-08T23:51:26.570Z,11.05
2023-04-08T23:54:34.423Z,11.03
2023-04-08T23:57:37.522Z,10.98
